Time;durP1;ratioP1;P1;durP2;ratioP2;P2;SDS_P1;SDS_P2;PMS_P1;PMS_P2;Temp;Humidity;BMP_temperature;BMP_pressure;BME280_temperature;BME280_humidity;BME280_pressure;Samples;Min_cycle;Max_cycle;Signal;HPM_P1;HPM_P2
2022/10/16 00:01:32;;;;;;;3.57;2.73;;;15.80;98.50;;;15.78;84.38;97785.94;5129321;27;20462;-86
2022/10/16 00:04:03;;;;;;;2.83;2.47;;;15.80;98.70;;;15.96;83.99;97814.78;5140312;27;20464;-85
2022/10/16 00:06:32;;;;;;;3.73;2.83;;;15.80;98.50;;;15.73;85.77;97802.25;5118757;27;20536;-84
2022/10/16 00:08:59;;;;;;;4.03;2.80;;;15.70;99.60;;;15.34;85.02;97726.06;5132822;27;20449;-85
2022/10/16 00:11:29;;;;;;;3.80;2.57;;;15.70;99.40;;;15.74;85.44;97784.81;5127964;27;20472;-85
2022/10/16 00:14:00;;;;;;;4.57;2.63;;;15.60;99.90;;;16.06;84.56;97830.44;5122671;27;20486;-83
2022/10/16 00:16:28;;;;;;;2.67;2.47;;;15.70;99.40;;;15.95;84.34;97823.22;5105180;27;20459;-86
2022/10/16 00:18:56;;;;;;;3.20;2.90;;;15.70;99.90;;;15.94;85.46;97843.38;5119596;27;20446;-87
2022/10/16 00:21:28;;;;;;;3.30;2.70;;;15.70;99.90;;;16.06;84.73;97851.38;5139650;27;20521;-86
2022/10/16 00:23:58;;;;;;;3.00;2.47;;;15.70;99.60;;;15.95;84.65;97834.09;5125073;27;20449;-87
2022/10/16 00:26:28;;;;;;;4.30;2.50;;;15.70;99.00;;;15.99;84.63;97844.25;5123131;27;20829;-85
2022/10/16 00:28:56;;;;;;;9.00;3.17;;;15.70;99.30;;;15.90;84.93;97845.75;5127396;27;20457;-85
2022/10/16 00:31:24;;;;;;;3.30;2.47;;;15.70;99.60;;;16.05;84.63;97842.41;5129203;27;20472;-85
2022/10/16 00:33:53;;;;;;;3.97;2.73;;;15.70;99.30;;;15.99;84.45;97837.97;5131654;27;20457;-85
2022/10/16 00:36:22;;;;;;;2.93;2.60;;;15.70;99.30;;;15.92;85.31;97845.53;5112090;27;20448;-85
2022/10/16 00:38:54;;;;;;;2.90;2.40;;;15.60;99.30;;;15.93;85.30;97841.72;5133411;27;20456;-87
2022/10/16 00:41:25;;;;;;;3.13;2.33;;;15.60;99.90;;;15.92;85.12;97845.53;5132996;27;20502;-86
2022/10/16 00:43:55;;;;;;;2.90;2.50;;;15.60;99.90;;;15.86;85.16;97848.16;5129127;27;20439;-87
2022/10/16 00:46:27;;;;;;;4.47;2.60;;;15.70;99.40;;;15.57;85.19;97796.63;5123834;27;20566;-86
2022/10/16 00:49:00;;;;;;;3.10;2.80;;;15.70;99.60;;;15.71;85.18;97804.41;5130446;27;20466;-87
2022/10/16 00:51:34;;;;;;;3.30;3.10;;;15.70;99.90;;;15.78;84.90;97796.84;5130700;27;20477;-86
2022/10/16 00:54:11;;;;;;;3.10;2.80;;;15.70;99.90;;;15.96;85.59;97836.59;5129618;27;20450;-86
2022/10/16 00:56:38;;;;;;;5.30;2.60;;;15.70;99.90;;;15.55;85.63;97779.72;5127534;27;21064;-83
2022/10/16 00:59:13;;;;;;;4.10;2.27;;;15.70;99.90;;;15.98;85.49;97849.94;5127384;27;20501;-86
2022/10/16 01:01:40;;;;;;;3.37;2.40;;;15.70;99.90;;;15.72;86.00;97816.94;5112218;27;20491;-88
2022/10/16 01:04:08;;;;;;;4.90;3.03;;;15.60;99.90;;;15.78;86.21;97829.53;5131256;27;20529;-87
2022/10/16 01:06:44;;;;;;;2.43;2.23;;;15.60;99.90;;;15.87;86.55;97859.88;5124473;27;20550;-85
2022/10/16 01:09:21;;;;;;;2.63;2.43;;;15.60;99.90;;;15.86;86.48;97853.59;5126149;27;20470;-86
2022/10/16 01:12:04;;;;;;;2.70;2.50;;;15.60;99.90;;;15.40;87.52;97801.31;5126433;27;20526;-88
2022/10/16 01:14:44;;;;;;;2.63;2.33;;;15.50;99.90;;;15.77;86.91;97848.84;5141005;27;20946;-87
2022/10/16 01:17:17;;;;;;;3.30;2.80;;;15.50;99.90;;;15.43;87.26;97808.97;5135969;27;20439;-84
2022/10/16 01:20:06;;;;;;;2.57;2.37;;;15.50;99.90;;;15.65;86.99;97836.19;5124144;27;20462;-86
2022/10/16 01:22:45;;;;;;;3.03;2.73;;;15.50;99.90;;;15.83;87.16;97854.09;5121916;27;20480;-86
2022/10/16 01:25:22;;;;;;;3.93;2.60;;;15.50;99.90;;;15.77;87.62;97876.91;5133347;27;20456;-84
2022/10/16 01:27:52;;;;;;;4.80;3.33;;;15.50;99.90;;;15.67;88.04;97865.88;5138081;27;20992;-86
2022/10/16 01:30:25;;;;;;;2.93;2.70;;;15.50;99.90;;;15.81;87.55;97855.44;5115282;27;20461;-88
2022/10/16 01:32:59;;;;;;;3.33;2.90;;;15.50;99.90;;;15.72;87.37;97844.97;5124649;27;20478;-85
2022/10/16 01:35:31;;;;;;;3.40;2.90;;;15.50;99.90;;;15.49;89.12;97854.22;5151544;27;20491;-88
2022/10/16 01:38:09;;;;;;;3.10;2.80;;;15.40;99.90;;;15.68;88.34;97857.47;5104403;27;20462;-88
2022/10/16 01:40:42;;;;;;;3.70;2.70;;;15.40;99.90;;;15.75;87.86;97859.16;5134942;27;20444;-89
2022/10/16 01:43:17;;;;;;;3.53;3.20;;;15.40;99.90;;;15.69;87.87;97858.28;5141362;27;20473;-88
2022/10/16 01:45:47;;;;;;;2.90;2.70;;;15.40;99.90;;;15.61;87.90;97850.56;5122070;27;20452;-87
2022/10/16 01:48:19;;;;;;;3.30;2.77;;;15.40;99.90;;;15.68;87.75;97872.97;5129504;27;20452;-87
2022/10/16 01:50:58;;;;;;;3.43;2.70;;;15.40;99.90;;;15.78;87.42;97877.75;5122568;27;20454;-85
2022/10/16 01:53:29;;;;;;;3.53;2.67;;;15.40;99.90;;;15.50;87.14;97828.63;5131145;27;20485;-87
2022/10/16 01:55:58;;;;;;;3.57;2.83;;;15.40;99.90;;;15.78;87.22;97881.28;5129656;27;20484;-87
2022/10/16 01:58:30;;;;;;;2.57;2.37;;;15.40;99.90;;;16.00;86.15;97888.69;5130791;27;20462;-88
2022/10/16 02:00:58;;;;;;;3.80;2.90;;;15.60;99.90;;;15.56;86.77;97851.31;5132591;27;20577;-87
2022/10/16 02:03:25;;;;;;;3.67;2.70;;;15.50;99.90;;;15.16;86.21;97757.97;5134474;27;20473;-86
2022/10/16 02:05:56;;;;;;;3.93;2.30;;;15.60;99.90;;;15.83;86.12;97853.28;5139050;27;20449;-86
2022/10/16 02:08:28;;;;;;;3.80;3.33;;;15.60;99.90;;;15.97;85.66;97884.56;5145144;27;20974;-85
2022/10/16 02:10:56;;;;;;;4.53;2.50;;;15.70;99.90;;;15.92;86.03;97880.94;5144989;27;20528;-88
2022/10/16 02:13:29;;;;;;;3.20;2.90;;;15.60;99.90;;;15.91;86.07;97890.19;5139044;27;20978;-86
2022/10/16 02:15:59;;;;;;;2.97;2.77;;;15.60;99.90;;;15.56;86.20;97822.19;5113187;27;20462;-85
2022/10/16 02:18:29;;;;;;;4.90;2.10;;;15.60;99.90;;;15.54;86.04;97834.41;5121762;27;20518;-88
2022/10/16 02:21:01;;;;;;;3.77;2.10;;;15.60;99.90;;;15.92;85.47;97883.66;5144372;27;20481;-85
2022/10/16 02:23:37;;;;;;;2.93;2.40;;;15.70;99.90;;;15.71;85.99;97851.50;5156541;27;20458;-87
2022/10/16 02:26:09;;;;;;;3.60;2.33;;;15.60;99.90;;;16.02;85.09;97891.13;5117463;27;20806;-87
2022/10/16 02:28:46;;;;;;;3.30;2.70;;;15.70;99.80;;;15.70;85.86;97849.06;5123229;27;21114;-89
2022/10/16 02:31:21;;;;;;;3.37;2.43;;;15.70;99.90;;;14.95;85.53;97751.44;5112836;27;20471;-88
2022/10/16 02:33:48;;;;;;;4.27;2.07;;;15.60;99.80;;;15.54;85.67;97835.25;5107942;27;20526;-89
2022/10/16 02:36:16;;;;;;;2.93;2.10;;;15.60;99.90;;;15.12;86.66;97792.22;5132844;27;20449;-88
2022/10/16 02:38:45;;;;;;;4.23;2.00;;;15.60;99.90;;;15.79;86.35;97879.41;5134543;27;20468;-87
2022/10/16 02:41:14;;;;;;;3.13;2.60;;;15.50;99.90;;;15.91;85.88;97884.75;5144423;27;20444;-85
2022/10/16 02:43:45;;;;;;;5.07;2.20;;;15.60;99.90;;;15.51;86.01;97837.63;5151657;27;20489;-85
2022/10/16 02:46:13;;;;;;;3.60;2.50;;;15.60;99.90;;;15.82;85.98;97884.34;5152725;27;20479;-84
2022/10/16 02:48:46;;;;;;;5.20;2.90;;;15.50;99.90;;;15.72;85.70;97869.50;5145670;27;20448;-84
2022/10/16 02:51:15;;;;;;;5.07;2.50;;;15.60;99.90;;;15.91;85.87;97882.00;5151862;27;20869;-86
2022/10/16 02:53:45;;;;;;;3.40;2.57;;;15.60;99.90;;;15.80;85.85;97867.41;5156342;27;20461;-85
2022/10/16 02:56:14;;;;;;;4.50;2.03;;;15.50;99.90;;;15.85;86.43;97883.81;5156037;27;20522;-88
2022/10/16 02:58:46;;;;;;;3.70;2.30;;;15.60;99.90;;;15.71;86.81;97872.50;5148055;27;20465;-84
2022/10/16 03:01:16;;;;;;;4.03;2.70;;;15.50;99.90;;;15.55;87.19;97845.06;5174397;27;20511;-85
2022/10/16 03:03:46;;;;;;;4.17;2.27;;;15.50;99.90;;;15.74;87.39;97882.88;5140766;28;20481;-88
2022/10/16 03:06:13;;;;;;;2.60;2.30;;;15.50;99.90;;;15.65;88.13;97887.09;5135472;28;20451;-84
2022/10/16 03:08:43;;;;;;;2.27;2.10;;;15.40;99.90;;;15.38;88.08;97827.91;5139299;28;20808;-84
2022/10/16 03:11:12;;;;;;;2.50;2.27;;;15.40;99.90;;;15.35;88.28;97820.25;5154900;27;20457;-84
2022/10/16 03:13:42;;;;;;;4.30;2.53;;;15.40;99.90;;;15.73;88.46;97892.13;5149502;28;20467;-84
2022/10/16 03:16:11;;;;;;;4.77;2.37;;;15.40;99.90;;;15.71;88.35;97894.28;5127782;28;20449;-85
2022/10/16 03:18:40;;;;;;;4.10;2.30;;;15.40;99.90;;;15.60;89.20;97887.03;5139358;27;20479;-84
2022/10/16 03:21:07;;;;;;;2.70;2.50;;;15.30;99.90;;;15.70;88.64;97884.47;5138239;27;20460;-82
2022/10/16 03:23:34;;;;;;;2.83;2.60;;;15.30;99.90;;;15.71;89.09;97891.56;5117384;27;20466;-85
2022/10/16 03:26:02;;;;;;;3.10;2.20;;;15.30;99.90;;;15.28;89.17;97828.59;5129365;27;20461;-82
2022/10/16 03:28:29;;;;;;;3.57;2.93;;;15.20;99.90;;;15.57;90.00;97900.09;5127762;28;20560;-85
2022/10/16 03:30:56;;;;;;;4.57;2.50;;;15.20;99.90;;;15.07;90.16;97811.16;5145406;27;20453;-86
2022/10/16 03:33:25;;;;;;;4.03;2.80;;;15.20;99.90;;;14.26;89.88;97691.69;5128696;27;20453;-86
2022/10/16 03:35:54;;;;;;;3.40;2.30;;;15.20;99.90;;;15.63;89.81;97897.41;5117247;28;20457;-87
2022/10/16 03:38:23;;;;;;;3.23;2.47;;;15.20;99.90;;;15.57;89.53;97889.19;5125605;28;20448;-84
2022/10/16 03:40:50;;;;;;;3.40;2.23;;;15.20;99.90;;;15.61;89.43;97900.38;5133850;27;20456;-86
2022/10/16 03:43:17;;;;;;;2.50;2.30;;;15.30;99.90;;;15.58;89.76;97904.44;5132019;28;20480;-86
2022/10/16 03:45:45;;;;;;;4.83;2.67;;;15.20;99.90;;;15.68;89.32;97903.75;5147702;27;20456;-85
2022/10/16 03:48:13;;;;;;;5.67;2.60;;;15.20;99.90;;;15.57;89.69;97910.13;5132914;27;20509;-83
2022/10/16 03:50:42;;;;;;;2.60;2.40;;;15.20;99.90;;;15.25;90.41;97876.22;5109174;27;20465;-86
2022/10/16 03:53:10;;;;;;;3.30;2.30;;;15.10;99.90;;;15.47;90.40;97902.66;5137362;27;20460;-86
2022/10/16 03:55:38;;;;;;;2.53;2.33;;;15.10;99.90;;;15.28;90.85;97881.16;5153731;27;20437;-82
2022/10/16 03:58:05;;;;;;;2.63;2.37;;;15.10;99.90;;;15.47;90.51;97899.09;5137270;27;20455;-86
2022/10/16 04:00:34;;;;;;;2.80;2.40;;;15.10;99.90;;;15.50;90.50;97904.88;5142178;27;20448;-83
2022/10/16 04:03:03;;;;;;;2.77;2.57;;;15.20;99.90;;;15.47;90.60;97910.81;5156056;27;20473;-85
2022/10/16 04:05:31;;;;;;;7.97;3.20;;;15.10;99.90;;;15.44;90.84;97911.31;5132188;27;20454;-85
2022/10/16 04:08:00;;;;;;;3.70;2.67;;;15.20;99.90;;;15.48;90.45;97917.09;5109686;27;20484;-84
2022/10/16 04:10:27;;;;;;;3.20;2.70;;;15.20;99.90;;;15.43;90.47;97917.84;5130072;27;20502;-85
2022/10/16 04:12:55;;;;;;;2.83;2.57;;;15.10;99.90;;;15.42;90.94;97917.00;5121449;27;20451;-84
2022/10/16 04:15:22;;;;;;;2.93;2.50;;;15.10;99.90;;;15.14;90.91;97880.66;5142980;27;20487;-84
2022/10/16 04:17:50;;;;;;;2.73;2.47;;;15.10;99.90;;;15.39;90.84;97924.84;5127390;27;20482;-84
2022/10/16 04:20:18;;;;;;;7.87;3.13;;;15.10;99.90;;;15.23;91.51;97921.88;5126754;27;20457;-85
2022/10/16 04:22:45;;;;;;;4.93;3.70;;;15.10;99.90;;;15.50;90.73;97937.53;5124631;27;20476;-81
2022/10/16 04:25:16;;;;;;;4.90;3.20;;;15.20;99.90;;;15.46;90.45;97928.22;5129442;27;20467;-87
2022/10/16 04:27:44;;;;;;;3.27;2.97;;;15.20;99.90;;;15.52;90.53;97934.56;5133384;27;20466;-86
2022/10/16 04:30:15;;;;;;;6.70;2.90;;;15.20;99.90;;;15.18;91.46;97901.94;5122428;27;20449;-86
2022/10/16 04:32:43;;;;;;;2.77;2.47;;;15.20;99.90;;;15.15;91.60;97900.53;5131607;27;20496;-85
2022/10/16 04:35:10;;;;;;;6.17;3.33;;;15.10;99.90;;;15.33;91.54;97923.13;5126777;27;20458;-86
2022/10/16 04:37:39;;;;;;;2.47;2.30;;;15.10;99.90;;;15.23;91.09;97916.44;5142690;27;20461;-86
2022/10/16 04:40:09;;;;;;;4.37;2.70;;;15.10;99.90;;;14.54;90.96;97789.66;5132572;27;20462;-87
2022/10/16 04:42:38;;;;;;;3.73;3.13;;;15.10;99.90;;;15.39;91.12;97936.56;5135677;27;20475;-85
2022/10/16 04:45:07;;;;;;;3.97;2.80;;;15.10;99.90;;;15.35;91.10;97921.81;5131775;27;20450;-86
2022/10/16 04:47:36;;;;;;;2.60;2.40;;;15.10;99.90;;;15.28;91.42;97932.88;5134369;27;20451;-86
2022/10/16 04:50:05;;;;;;;3.60;2.60;;;15.10;99.90;;;15.35;91.04;97919.09;5125423;27;20464;-86
2022/10/16 04:52:33;;;;;;;3.10;2.60;;;15.10;99.90;;;15.24;90.71;97906.38;5134337;27;20984;-85
2022/10/16 04:55:02;;;;;;;2.60;2.40;;;15.10;99.90;;;15.34;91.10;97917.44;5131726;27;20468;-84
2022/10/16 04:57:30;;;;;;;2.53;2.33;;;15.10;99.90;;;15.46;90.29;97920.06;5127960;27;20462;-84
2022/10/16 05:00:02;;;;;;;3.30;2.63;;;15.20;99.90;;;15.47;90.16;97921.69;5134068;27;21047;-84
2022/10/16 05:02:30;;;;;;;2.60;2.40;;;15.20;99.90;;;15.29;90.00;97881.97;5162433;27;20480;-86
2022/10/16 05:04:59;;;;;;;3.20;2.73;;;15.20;99.90;;;15.46;89.75;97908.34;5141169;27;20845;-85
2022/10/16 05:07:27;;;;;;;6.03;2.40;;;15.20;99.90;;;15.50;89.25;97913.03;5129327;27;20741;-84
2022/10/16 05:09:56;;;;;;;4.17;3.17;;;15.20;99.90;;;15.23;89.55;97878.34;5134450;27;20539;-84
2022/10/16 05:12:23;;;;;;;2.90;2.70;;;15.10;99.90;;;15.55;90.25;97928.63;5116276;27;20457;-84
2022/10/16 05:14:50;;;;;;;2.70;2.50;;;15.10;99.90;;;15.41;90.95;97930.88;5128053;27;20528;-83
2022/10/16 05:17:19;;;;;;;2.60;2.40;;;15.00;99.90;;;15.30;91.07;97928.00;5128082;27;20452;-84
2022/10/16 05:19:46;;;;;;;3.10;2.80;;;15.00;99.90;;;15.36;90.44;97928.06;5129863;27;20521;-82
2022/10/16 05:22:13;;;;;;;7.30;3.10;;;15.10;99.90;;;15.38;91.32;97929.47;5122733;27;20521;-86
2022/10/16 05:24:45;;;;;;;3.40;2.93;;;15.00;99.90;;;15.35;91.44;97942.75;5116458;27;21009;-88
2022/10/16 05:27:18;;;;;;;3.20;3.00;;;15.00;99.90;;;15.31;90.72;97945.13;5129080;27;21100;-89
2022/10/16 05:29:48;;;;;;;3.57;3.27;;;14.90;99.90;;;14.95;91.27;97893.72;5128997;27;21011;-85
2022/10/16 05:32:19;;;;;;;3.10;2.83;;;14.90;99.90;;;15.28;91.30;97941.03;5126310;27;20450;-84
2022/10/16 05:34:47;;;;;;;3.33;2.60;;;14.90;99.90;;;14.68;90.91;97847.25;5146673;27;20548;-87
2022/10/16 05:37:16;;;;;;;4.93;3.23;;;14.90;99.90;;;15.05;91.37;97922.13;5113763;27;20497;-87
2022/10/16 05:39:43;;;;;;;3.03;2.83;;;14.90;99.90;;;15.35;91.19;97959.91;5121433;27;20454;-86
2022/10/16 05:42:11;;;;;;;2.97;2.77;;;14.90;99.90;;;15.15;90.79;97935.91;5153210;27;20517;-86
2022/10/16 05:44:41;;;;;;;3.70;2.80;;;14.90;99.90;;;14.94;90.64;97915.72;5135134;27;20564;-86
2022/10/16 05:47:10;;;;;;;2.70;2.50;;;15.00;99.90;;;15.19;91.09;97966.19;5124436;27;20453;-86
2022/10/16 05:49:39;;;;;;;2.87;2.63;;;15.00;99.90;;;15.30;90.48;97971.53;5126977;27;20527;-87
2022/10/16 05:52:08;;;;;;;3.30;3.00;;;15.00;99.90;;;15.14;90.02;97950.59;5120484;27;20480;-86
2022/10/16 05:54:39;;;;;;;3.03;2.57;;;15.10;99.90;;;15.14;89.39;97939.72;5132396;27;20451;-89
2022/10/16 05:57:08;;;;;;;2.80;2.60;;;15.10;99.90;;;15.58;88.92;97994.31;5131707;27;20442;-89
2022/10/16 05:59:36;;;;;;;2.93;2.70;;;15.20;99.90;;;15.36;88.92;97974.34;5120791;27;20848;-88
2022/10/16 06:02:07;;;;;;;2.70;2.50;;;15.20;99.90;;;15.19;88.77;97919.94;5132191;27;20445;-87
2022/10/16 06:04:35;;;;;;;2.90;2.60;;;15.20;99.90;;;15.65;88.30;97998.75;5119744;27;20488;-87
2022/10/16 06:07:05;;;;;;;2.70;2.50;;;15.30;99.90;;;15.58;88.62;97982.56;5126093;27;20450;-90
2022/10/16 06:09:34;;;;;;;3.07;2.70;;;15.30;99.90;;;15.55;88.70;97983.91;5143623;27;20450;-89
2022/10/16 06:12:02;;;;;;;2.80;2.50;;;15.30;99.90;;;15.70;88.35;97986.03;5127493;27;20457;-81
2022/10/16 06:14:29;;;;;;;3.80;2.63;;;15.40;99.90;;;15.80;87.71;97985.34;5129077;27;20456;-79
2022/10/16 06:16:57;;;;;;;3.13;2.23;;;15.40;99.90;;;15.85;87.21;98001.78;5118151;27;20458;-78
2022/10/16 06:19:24;;;;;;;4.00;3.20;;;15.50;99.90;;;15.61;87.49;97986.72;5133612;27;20456;-78
2022/10/16 06:21:51;;;;;;;5.30;2.43;;;15.50;99.90;;;15.68;87.60;97992.78;5119009;27;20456;-78
2022/10/16 06:24:20;;;;;;;4.00;2.30;;;15.50;99.90;;;15.89;87.15;98009.47;5114630;27;20484;-80
2022/10/16 06:26:47;;;;;;;3.43;2.50;;;15.60;99.90;;;15.98;86.42;98000.63;5120509;27;20517;-81
2022/10/16 06:29:15;;;;;;;2.93;2.70;;;15.60;99.90;;;16.05;85.88;98000.44;5120491;27;20461;-79
2022/10/16 06:31:42;;;;;;;2.90;2.70;;;15.70;99.90;;;15.92;85.89;98008.97;5123764;27;20477;-81
2022/10/16 06:34:11;;;;;;;3.53;2.53;;;15.80;99.50;;;15.92;86.58;98003.53;5118101;27;20452;-80
2022/10/16 06:36:39;;;;;;;3.93;2.47;;;15.70;99.70;;;16.11;85.98;98004.06;5121791;27;20466;-80
2022/10/16 06:39:07;;;;;;;4.80;2.80;;;15.80;99.90;;;16.26;84.89;98008.88;5137397;27;20485;-80
2022/10/16 06:41:36;;;;;;;3.33;2.60;;;15.80;99.90;;;16.26;85.12;98009.72;5139274;27;20465;-79
2022/10/16 06:44:06;;;;;;;5.63;3.10;;;15.80;99.20;;;16.34;84.36;98011.19;5143666;27;21050;-79
2022/10/16 06:46:37;;;;;;;5.70;2.30;;;16.00;98.10;;;16.31;83.90;98011.69;5124516;27;20458;-80
2022/10/16 06:49:04;;;;;;;3.70;2.77;;;16.00;97.60;;;16.42;83.32;98012.66;5121136;27;20457;-79
2022/10/16 06:51:34;;;;;;;2.77;2.37;;;16.10;96.70;;;16.61;82.96;97998.69;5113365;27;20468;-80
2022/10/16 06:54:02;;;;;;;4.83;2.30;;;16.20;96.70;;;16.55;82.43;98003.25;5119237;27;20954;-79
2022/10/16 06:56:30;;;;;;;2.47;2.23;;;16.20;96.00;;;16.62;82.12;98012.06;5118310;27;20450;-80
2022/10/16 06:59:00;;;;;;;3.20;2.80;;;16.20;96.00;;;16.58;82.67;98032.72;5122016;27;20457;-80
2022/10/16 07:01:27;;;;;;;3.37;2.73;;;16.20;96.50;;;16.16;82.53;97978.78;5129824;27;20469;-80
2022/10/16 07:03:55;;;;;;;2.63;2.43;;;16.20;96.40;;;16.38;82.65;98028.69;5121335;28;20477;-79
2022/10/16 07:06:25;;;;;;;2.60;2.40;;;16.20;96.50;;;16.51;81.76;98002.13;5116016;27;20522;-79
2022/10/16 07:08:53;;;;;;;3.50;2.27;;;16.30;96.50;;;16.63;81.78;98046.44;5138899;27;20458;-79
2022/10/16 07:11:23;;;;;;;3.60;2.30;;;16.30;95.80;;;16.82;81.33;98048.84;5130456;28;20450;-79
2022/10/16 07:13:52;;;;;;;5.43;2.43;;;16.30;95.70;;;16.85;80.97;98072.88;5141854;28;20465;-80
2022/10/16 07:16:22;;;;;;;4.07;2.30;;;16.40;95.30;;;16.86;80.60;98071.78;5140934;28;20458;-79
2022/10/16 07:18:51;;;;;;;3.53;2.60;;;16.50;95.00;;;16.68;81.05;98053.84;5129204;28;20450;-78
2022/10/16 07:21:22;;;;;;;2.37;2.17;;;16.40;95.20;;;16.92;80.37;98057.16;5136413;27;20453;-79
2022/10/16 07:23:51;;;;;;;6.60;2.60;;;16.50;94.80;;;16.66;81.11;98062.28;5150546;27;20487;-82
2022/10/16 07:26:19;;;;;;;2.97;2.50;;;16.50;94.60;;;16.79;81.19;98077.44;5150759;27;20468;-77
2022/10/16 07:28:46;;;;;;;2.93;2.73;;;16.50;95.10;;;16.85;80.82;98076.44;5148569;27;20465;-76
2022/10/16 07:31:16;;;;;;;3.00;2.60;;;16.50;94.90;;;16.77;80.71;98076.06;5144987;27;20461;-79
2022/10/16 07:33:47;;;;;;;6.33;2.27;;;16.50;94.70;;;17.01;80.11;98073.06;5145042;27;21009;-80
2022/10/16 07:36:16;;;;;;;2.97;2.77;;;16.60;94.70;;;16.94;79.91;98075.97;5145729;27;20461;-79
2022/10/16 07:38:43;;;;;;;4.93;2.83;;;16.60;94.30;;;17.10;79.59;98093.38;5167251;27;20778;-79
2022/10/16 07:41:14;;;;;;;4.63;2.80;;;16.70;94.40;;;17.41;78.59;98096.44;5146960;27;20516;-79
2022/10/16 07:43:46;;;;;;;2.43;2.23;;;16.80;94.00;;;17.11;79.16;98101.28;5130777;27;20469;-77
2022/10/16 07:46:14;;;;;;;3.20;2.10;;;16.80;93.70;;;16.99;79.63;98082.34;5121610;27;20457;-79
2022/10/16 07:48:45;;;;;;;3.27;2.73;;;16.70;93.80;;;16.90;80.41;98088.47;5131627;27;20464;-79
2022/10/16 07:51:15;;;;;;;4.47;2.47;;;16.70;94.10;;;17.26;78.99;98081.53;5127459;27;20483;-79
2022/10/16 07:53:42;;;;;;;2.90;2.60;;;16.80;94.20;;;17.45;78.15;98081.16;5122882;27;21254;-78
2022/10/16 07:56:10;;;;;;;3.10;2.60;;;17.00;93.40;;;17.52;77.31;98062.66;5135385;27;20981;-79
2022/10/16 07:58:38;;;;;;;2.70;2.50;;;17.10;93.10;;;17.48;77.02;98066.97;5123119;27;20461;-77
2022/10/16 08:01:07;;;;;;;4.27;2.57;;;17.20;92.70;;;17.68;77.07;98093.66;5114781;27;20622;-77
2022/10/16 08:03:36;;;;;;;2.33;2.13;;;17.20;92.70;;;17.69;76.81;98078.09;5119037;27;20807;-77
2022/10/16 08:06:05;;;;;;;3.83;2.50;;;17.40;92.60;;;18.09;75.39;98093.16;5131267;27;20519;-81
2022/10/16 08:08:34;;;;;;;3.17;2.73;;;17.60;92.20;;;17.59;76.92;98089.78;5124501;27;20779;-80
2022/10/16 08:11:03;;;;;;;3.67;2.70;;;17.50;91.90;;;18.01;75.13;98090.91;5125190;27;20454;-77
2022/10/16 08:13:30;;;;;;;2.63;2.40;;;17.60;91.80;;;18.06;75.19;98099.16;5117266;27;20521;-79
2022/10/16 08:15:57;;;;;;;3.70;2.70;;;17.60;91.80;;;18.18;74.63;98107.16;5115793;27;21153;-77
2022/10/16 08:18:25;;;;;;;3.23;2.93;;;17.60;91.60;;;18.19;74.46;98114.28;5118826;27;20463;-78
2022/10/16 08:20:57;;;;;;;2.20;2.00;;;17.70;91.60;;;17.98;74.67;98110.56;5125245;27;20459;-81
2022/10/16 08:23:25;;;;;;;3.67;2.57;;;17.70;91.30;;;18.03;74.94;98126.19;5117517;27;20817;-79
2022/10/16 08:25:55;;;;;;;4.63;2.67;;;17.60;91.40;;;17.97;74.81;98108.94;5121844;27;20584;-80
2022/10/16 08:28:23;;;;;;;3.30;2.80;;;17.50;91.30;;;17.79;74.61;98088.28;5120281;27;20581;-80
2022/10/16 08:30:53;;;;;;;2.70;2.50;;;17.50;91.20;;;17.92;74.12;98095.22;5124549;27;20472;-80
2022/10/16 08:33:20;;;;;;;6.20;2.77;;;17.60;91.10;;;18.36;73.25;98108.66;5121909;27;20485;-81
2022/10/16 08:35:53;;;;;;;7.13;2.53;;;17.80;91.10;;;18.30;73.43;98115.19;5136334;27;20454;-82
2022/10/16 08:38:20;;;;;;;4.20;2.27;;;17.90;90.90;;;18.36;73.34;98114.13;5124422;27;20463;-79
2022/10/16 08:40:48;;;;;;;2.70;2.50;;;18.00;90.80;;;18.53;72.67;98107.66;5117912;27;20446;-78
2022/10/16 08:43:44;;;;;;;3.83;3.10;;;18.10;90.80;;;18.24;73.68;98110.75;5120974;27;20832;-79
2022/10/16 08:46:30;;;;;;;4.27;2.63;;;18.00;90.70;;;18.06;74.06;98121.03;5125353;27;20451;-77
2022/10/16 08:49:00;;;;;;;2.60;2.27;;;17.90;90.70;;;18.14;72.74;98076.00;5122531;27;20984;-77
2022/10/16 08:51:31;;;;;;;3.07;2.17;;;18.00;90.70;;;18.35;73.07;98104.28;5131824;27;20485;-82
2022/10/16 08:54:02;;;;;;;3.10;2.30;;;18.10;90.70;;;18.26;73.30;98117.63;5130241;27;20474;-77
2022/10/16 08:56:29;;;;;;;2.60;2.13;;;18.10;90.60;;;18.74;71.22;98118.72;5121925;27;20458;-81
2022/10/16 08:59:00;;;;;;;5.33;2.13;;;18.30;90.40;;;18.69;71.30;98112.13;5122548;27;20473;-80
2022/10/16 09:01:39;;;;;;;8.50;3.07;;;18.40;90.30;;;19.07;69.77;98122.97;5118146;27;21042;-79
2022/10/16 09:04:50;;;;;;;2.60;2.40;;;18.50;90.00;;;19.14;69.54;98125.47;5115309;27;20487;-79
2022/10/16 09:07:28;;;;;;;4.50;2.40;;;18.80;89.50;;;19.21;68.97;98104.13;5116502;27;20452;-79
2022/10/16 09:10:14;;;;;;;5.90;2.30;;;18.90;89.30;;;19.29;69.30;98129.34;5123421;27;20520;-79
2022/10/16 09:12:47;;;;;;;2.33;2.13;;;19.00;89.40;;;19.41;68.55;98129.91;5109157;27;20524;-80
2022/10/16 09:15:34;;;;;;;4.37;2.10;;;19.10;88.80;;;19.38;68.47;98111.28;5118915;27;20459;-79
2022/10/16 09:18:11;;;;;;;2.43;2.23;;;19.20;88.50;;;19.67;67.70;98113.53;5120786;27;20458;-80
2022/10/16 09:20:50;;;;;;;2.73;1.90;;;19.30;88.20;;;19.79;66.57;98108.59;5125409;27;20468;-81
2022/10/16 09:23:23;;;;;;;2.50;2.30;;;19.50;87.70;;;19.90;67.73;98127.78;5118242;27;20943;-77
2022/10/16 09:25:51;;;;;;;2.93;2.63;;;19.60;88.00;;;20.03;66.72;98115.47;5119030;27;20482;-77
2022/10/16 09:28:19;;;;;;;2.73;2.00;;;19.70;87.70;;;20.30;66.23;98126.13;5124464;27;20522;-76
2022/10/16 09:30:49;;;;;;;2.03;1.87;;;19.90;87.70;;;20.33;65.58;98131.06;5126040;27;20462;-77
2022/10/16 09:33:19;;;;;;;2.93;2.63;;;20.00;87.10;;;20.32;65.04;98139.56;5141190;27;20464;-78
2022/10/16 09:35:49;;;;;;;3.13;1.87;;;20.00;86.70;;;20.10;65.58;98143.44;5124186;27;20816;-82
2022/10/16 09:38:28;;;;;;;4.20;2.27;;;19.90;86.50;;;20.00;64.81;98148.91;5122395;27;20449;-79
2022/10/16 09:40:56;;;;;;;8.60;1.90;;;19.70;86.00;;;19.67;65.31;98139.00;5117127;27;20456;-78
2022/10/16 09:43:30;;;;;;;3.07;2.30;;;19.50;86.00;;;19.67;65.83;98151.88;5110989;27;20453;-78
2022/10/16 09:46:01;;;;;;;3.93;2.20;;;19.40;86.20;;;19.29;66.90;98156.72;5114160;27;21832;-78
2022/10/16 09:48:38;;;;;;;2.27;2.03;;;19.10;86.50;;;19.13;67.45;98159.41;5120638;27;20450;-79
2022/10/16 09:51:18;;;;;;;2.93;2.33;;;18.90;86.80;;;19.22;67.43;98151.50;5116091;27;20634;-78
2022/10/16 09:53:47;;;;;;;2.40;2.20;;;18.80;87.20;;;18.84;68.11;98140.66;5115311;27;20461;-79
2022/10/16 09:56:25;;;;;;;4.00;3.20;;;18.80;87.10;;;19.17;68.21;98155.03;5116926;27;20463;-78
2022/10/16 09:58:53;;;;;;;2.40;2.20;;;18.70;87.50;;;19.51;67.09;98146.38;5123816;27;20593;-81
2022/10/16 10:01:26;;;;;;;2.63;2.17;;;18.90;87.60;;;19.37;67.27;98150.75;5124229;27;21065;-80
2022/10/16 10:04:00;;;;;;;2.70;2.50;;;18.90;87.30;;;19.57;66.95;98160.91;5124041;27;20473;-80
2022/10/16 10:06:33;;;;;;;2.53;2.33;;;19.00;87.30;;;19.62;66.77;98166.41;5123860;27;20541;-79
2022/10/16 10:09:07;;;;;;;3.50;2.77;;;19.20;87.30;;;19.73;66.00;98175.47;5126498;27;20465;-80
2022/10/16 10:11:45;;;;;;;2.80;2.60;;;19.30;86.90;;;19.77;65.76;98151.88;5125064;27;20479;-79
2022/10/16 10:14:21;;;;;;;6.70;2.33;;;19.40;86.60;;;19.74;65.73;98155.16;5119552;27;20446;-80
2022/10/16 10:16:51;;;;;;;5.20;2.60;;;19.40;86.20;;;20.25;64.79;98161.81;5121793;27;20458;-80
2022/10/16 10:19:20;;;;;;;4.77;2.73;;;19.70;86.50;;;20.55;63.76;98160.13;5124877;27;20473;-81
2022/10/16 10:21:48;;;;;;;2.83;2.53;;;20.00;86.00;;;20.67;63.35;98157.06;5119744;27;20463;-79
2022/10/16 10:24:18;;;;;;;2.90;2.13;;;20.10;85.80;;;20.98;62.64;98145.19;5123972;27;20471;-81
2022/10/16 10:26:56;;;;;;;2.40;1.90;;;20.40;85.50;;;21.29;61.42;98162.34;5120560;27;20446;-80
2022/10/16 10:29:39;;;;;;;3.77;2.20;;;20.70;84.90;;;20.73;62.43;98155.13;5118454;27;20491;-79
2022/10/16 10:32:22;;;;;;;5.03;1.90;;;20.60;84.60;;;20.59;61.75;98120.03;5117014;27;20478;-81
2022/10/16 10:35:04;;;;;;;2.50;2.07;;;20.50;84.40;;;20.36;63.25;98149.72;5123553;27;20544;-80